createdAt,value
2023-02-27T00:01:35.563Z,96929.00
2023-02-27T00:04:03.821Z,96917.88
2023-02-27T00:06:32.007Z,96927.63
2023-02-27T00:09:00.284Z,96919.38
2023-02-27T00:11:29.043Z,96926.59
2023-02-27T00:13:57.545Z,96915.31
2023-02-27T00:16:27.013Z,96920.44
2023-02-27T00:18:57.010Z,96919.78
2023-02-27T00:21:25.706Z,96925.53
2023-02-27T00:23:53.961Z,96911.47
2023-02-27T00:26:23.314Z,96925.94
2023-02-27T00:28:51.363Z,96920.56
2023-02-27T00:31:19.539Z,96921.03
2023-02-27T00:33:48.961Z,96921.88
2023-02-27T00:36:17.098Z,96914.19
2023-02-27T00:38:45.150Z,96919.88
2023-02-27T00:41:13.208Z,96919.81
2023-02-27T00:43:41.399Z,96913.03
2023-02-27T00:46:11.871Z,96906.88
2023-02-27T00:48:39.918Z,96904.34
2023-02-27T00:51:11.122Z,96907.16
2023-02-27T00:53:39.281Z,96917.19
2023-02-27T00:56:08.588Z,96917.66
2023-02-27T00:58:36.569Z,96910.59
2023-02-27T01:01:04.726Z,96919.13
2023-02-27T01:03:32.723Z,96915.63
2023-02-27T01:06:00.872Z,96916.34
2023-02-27T01:08:30.438Z,96919.41
2023-02-27T01:10:58.717Z,96913.09
2023-02-27T01:13:26.899Z,96920.50
2023-02-27T01:15:54.949Z,96915.06
2023-02-27T01:18:23.043Z,96915.75
2023-02-27T01:20:54.490Z,96911.81
2023-02-27T01:23:23.695Z,96911.84
2023-02-27T01:25:53.065Z,96914.81
2023-02-27T01:28:21.223Z,96908.69
2023-02-27T01:30:49.671Z,96906.13
2023-02-27T01:33:17.687Z,96907.78
2023-02-27T01:35:45.860Z,96899.44
2023-02-27T01:38:13.941Z,96902.03
2023-02-27T01:40:43.610Z,96901.44
2023-02-27T01:43:17.549Z,96903.38
2023-02-27T01:45:48.707Z,96896.00
2023-02-27T01:48:20.109Z,96904.38
2023-02-27T01:50:53.837Z,96886.13
2023-02-27T01:53:25.826Z,96896.06
2023-02-27T01:55:57.107Z,96891.56
2023-02-27T01:58:27.775Z,96901.16
2023-02-27T02:00:56.798Z,96899.28
2023-02-27T02:03:32.141Z,96890.84
2023-02-27T02:06:03.263Z,96891.22
2023-02-27T02:08:36.652Z,96903.31
2023-02-27T02:11:06.803Z,96905.88
2023-02-27T02:13:37.919Z,96899.31
2023-02-27T02:16:28.598Z,96896.59
2023-02-27T02:19:07.276Z,96898.19
2023-02-27T02:22:19.840Z,96899.09
2023-02-27T02:25:35.732Z,96894.72
2023-02-27T02:28:21.111Z,96898.16
2023-02-27T02:31:38.427Z,96898.41
2023-02-27T02:34:35.735Z,96901.81
2023-02-27T02:37:51.707Z,96902.22
2023-02-27T02:40:31.768Z,96902.09
2023-02-27T02:43:11.114Z,96897.47
2023-02-27T02:45:49.489Z,96897.19
2023-02-27T02:48:26.552Z,96900.03
2023-02-27T02:51:02.708Z,96899.63
2023-02-27T02:53:38.153Z,96906.09
2023-02-27T02:56:16.814Z,96901.84
2023-02-27T02:58:50.498Z,96895.69
2023-02-27T03:01:26.114Z,96906.09
2023-02-27T03:04:01.037Z,96911.94
2023-02-27T03:06:33.614Z,96906.03
2023-02-27T03:09:09.169Z,96899.63
2023-02-27T03:11:44.849Z,96899.22
2023-02-27T03:14:19.568Z,96897.03
2023-02-27T03:16:53.185Z,96898.97
2023-02-27T03:19:26.654Z,96910.16
2023-02-27T03:22:05.287Z,96904.53
2023-02-27T03:24:39.753Z,96915.16
2023-02-27T03:27:10.580Z,96906.41
2023-02-27T03:29:44.947Z,96916.56
2023-02-27T03:32:18.677Z,96906.88
2023-02-27T03:34:48.070Z,96906.75
2023-02-27T03:37:30.052Z,96912.31
2023-02-27T03:40:07.835Z,96913.53
2023-02-27T03:42:43.222Z,96918.28
2023-02-27T03:45:25.424Z,96920.38
2023-02-27T03:47:54.181Z,96922.00
2023-02-27T03:50:23.157Z,96925.94
2023-02-27T03:52:51.922Z,96927.19
2023-02-27T03:55:26.078Z,96924.19
2023-02-27T03:57:56.478Z,96930.31
2023-02-27T04:00:27.454Z,96933.19
2023-02-27T04:03:00.561Z,96934.41
2023-02-27T04:05:30.723Z,96932.91
2023-02-27T04:08:40.650Z,96932.81
2023-02-27T04:11:41.414Z,96942.09
2023-02-27T04:14:36.322Z,96939.47
2023-02-27T04:17:22.924Z,96938.13
2023-02-27T04:20:25.370Z,96941.13
2023-02-27T04:22:59.109Z,96944.13
2023-02-27T04:25:52.338Z,96947.66
2023-02-27T04:28:29.062Z,96951.06
2023-02-27T04:31:12.479Z,96946.03
2023-02-27T04:33:47.204Z,96942.06
2023-02-27T04:36:24.238Z,96936.22
2023-02-27T04:39:00.388Z,96949.44
2023-02-27T04:41:35.495Z,96945.63
2023-02-27T04:44:06.543Z,96940.44
2023-02-27T04:46:40.414Z,96944.50
2023-02-27T04:49:14.256Z,96946.84
2023-02-27T04:51:52.236Z,96937.41
2023-02-27T04:54:27.810Z,96943.03
2023-02-27T04:57:02.141Z,96938.38
2023-02-27T04:59:36.404Z,96943.31
2023-02-27T05:02:14.322Z,96940.31
2023-02-27T05:04:45.947Z,96947.00
2023-02-27T05:07:18.834Z,96944.94
2023-02-27T05:09:55.276Z,96943.59
2023-02-27T05:12:30.469Z,96946.03
2023-02-27T05:15:04.547Z,96949.03
2023-02-27T05:17:39.138Z,96945.09
2023-02-27T05:20:09.311Z,96945.50
2023-02-27T05:22:46.839Z,96944.53
2023-02-27T05:25:24.627Z,96957.22
2023-02-27T05:27:59.604Z,96962.09
2023-02-27T05:30:36.442Z,96956.91
2023-02-27T05:33:11.419Z,96964.81
2023-02-27T05:36:12.032Z,96963.72
2023-02-27T05:39:09.797Z,96962.22
2023-02-27T05:41:43.172Z,96971.34
2023-02-27T05:44:15.789Z,96960.19
2023-02-27T05:46:49.211Z,96970.81
2023-02-27T05:49:24.741Z,96974.09
2023-02-27T05:51:57.158Z,96973.41
2023-02-27T05:54:34.918Z,96975.72
2023-02-27T05:57:08.530Z,96976.50
2023-02-27T05:59:43.576Z,96972.16
2023-02-27T06:02:12.949Z,96973.00
2023-02-27T06:04:42.706Z,96977.94
2023-02-27T06:07:10.730Z,96971.22
2023-02-27T06:09:38.856Z,96972.06
2023-02-27T06:12:07.186Z,96975.47
2023-02-27T06:14:35.263Z,96974.78
2023-02-27T06:17:03.531Z,96977.94
2023-02-27T06:19:31.763Z,96976.84
2023-02-27T06:22:01.097Z,96977.94
2023-02-27T06:24:29.194Z,96978.06
2023-02-27T06:26:57.242Z,96983.91
2023-02-27T06:29:25.467Z,96987.31
2023-02-27T06:31:53.586Z,96991.81
2023-02-27T06:34:21.610Z,96990.72
2023-02-27T06:36:49.651Z,96994.69
2023-02-27T06:39:18.983Z,96993.03
2023-02-27T06:41:47.052Z,96995.88
2023-02-27T06:44:15.319Z,96999.88
2023-02-27T06:46:43.344Z,96994.69
2023-02-27T06:49:11.441Z,96996.84
2023-02-27T06:51:39.532Z,97000.78
2023-02-27T06:54:08.051Z,96999.28
2023-02-27T06:56:37.404Z,97005.97
2023-02-27T06:59:05.877Z,97005.97
2023-02-27T07:01:34.138Z,97000.78
2023-02-27T07:04:02.211Z,97004.63
2023-02-27T07:07:35.189Z,97007.91
2023-02-27T07:09:20.522Z,97007.06
2023-02-27T07:11:50.596Z,97003.63
2023-02-27T07:14:18.620Z,97006.66
2023-02-27T07:16:50.819Z,97011.00
2023-02-27T07:19:18.900Z,97011.84
2023-02-27T07:21:47.032Z,97023.53
2023-02-27T07:24:15.043Z,97019.84
2023-02-27T07:26:43.377Z,97025.59
2023-02-27T07:29:14.753Z,97025.72
2023-02-27T07:31:43.893Z,97032.09
2023-02-27T07:34:13.750Z,97030.63
2023-02-27T07:36:42.060Z,97029.13
2023-02-27T07:39:10.675Z,97029.91
2023-02-27T07:41:38.748Z,97030.44
2023-02-27T07:44:08.586Z,97032.06
2023-02-27T07:46:38.086Z,97034.53
2023-02-27T07:49:06.193Z,97033.16
2023-02-27T07:51:36.468Z,97031.78
2023-02-27T07:54:08.086Z,97041.19
2023-02-27T07:56:36.249Z,97037.91
2023-02-27T07:59:04.609Z,97027.16
2023-02-27T08:01:32.662Z,97027.38
2023-02-27T08:04:02.332Z,97028.75
2023-02-27T08:06:30.714Z,97026.00
2023-02-27T08:08:58.786Z,97031.69
2023-02-27T08:11:27.007Z,97042.34
2023-02-27T08:14:00.432Z,97034.09
2023-02-27T08:16:30.833Z,97034.19
2023-02-27T08:18:59.718Z,97039.53
2023-02-27T08:21:31.130Z,97035.97
2023-02-27T08:23:59.593Z,97039.91
2023-02-27T08:26:27.981Z,97039.16
2023-02-27T08:28:56.111Z,97040.00
2023-02-27T08:31:24.501Z,97044.03
2023-02-27T08:34:00.975Z,97039.13
2023-02-27T08:36:37.853Z,97039.94
2023-02-27T08:39:06.696Z,97033.50
2023-02-27T08:41:35.149Z,97032.97
2023-02-27T08:44:03.242Z,97037.88
2023-02-27T08:46:31.318Z,97039.56
2023-02-27T08:48:59.378Z,97036.72
2023-02-27T08:51:27.993Z,97045.47
2023-02-27T08:53:59.012Z,97040.84
2023-02-27T08:56:28.073Z,97045.41
2023-02-27T08:58:56.905Z,97051.94
2023-02-27T09:01:27.296Z,97050.91
2023-02-27T09:03:55.739Z,97055.41
2023-02-27T09:06:26.157Z,97053.59
2023-02-27T09:08:54.481Z,97059.50
2023-02-27T09:11:24.070Z,97060.69
2023-02-27T09:13:52.820Z,97062.31
2023-02-27T09:16:22.151Z,97062.84
2023-02-27T09:18:50.946Z,97069.66
2023-02-27T09:21:20.418Z,97057.69
2023-02-27T09:23:48.429Z,97056.19
2023-02-27T09:26:17.130Z,97060.06
2023-02-27T09:28:46.534Z,97058.34
2023-02-27T09:31:14.738Z,97064.63
2023-02-27T09:33:42.865Z,97068.13
2023-02-27T09:36:11.429Z,97063.41
2023-02-27T09:38:41.388Z,97060.63
2023-02-27T09:41:36.641Z,97062.28
2023-02-27T09:44:08.248Z,97066.25
2023-02-27T09:46:36.299Z,97067.09
2023-02-27T09:49:05.535Z,97066.69
2023-02-27T09:51:33.761Z,97070.72
2023-02-27T09:54:03.402Z,97067.91
2023-02-27T09:56:37.146Z,97068.00
2023-02-27T09:59:20.578Z,97067.81
2023-02-27T10:01:54.290Z,97068.66
2023-02-27T10:04:40.621Z,97072.88
2023-02-27T10:07:17.658Z,97079.34
2023-02-27T10:10:00.464Z,97074.31
2023-02-27T10:12:51.004Z,97075.28
2023-02-27T10:15:27.156Z,97081.16
2023-02-27T10:18:07.083Z,97083.94
2023-02-27T10:20:44.777Z,97082.59
2023-02-27T10:23:17.429Z,97083.47
2023-02-27T10:25:48.715Z,97082.31
2023-02-27T10:28:19.931Z,97077.47
2023-02-27T10:30:51.789Z,97084.78
2023-02-27T10:33:28.314Z,97094.50
2023-02-27T10:35:57.765Z,97092.06
2023-02-27T10:38:34.332Z,97098.53
2023-02-27T10:41:04.472Z,97094.91
2023-02-27T10:43:32.656Z,97088.00
2023-02-27T10:46:08.191Z,97095.19
2023-02-27T10:48:36.328Z,97088.75
2023-02-27T10:51:27.135Z,97091.69
2023-02-27T10:54:24.990Z,97092.63
2023-02-27T10:56:56.680Z,97081.72
2023-02-27T10:59:29.202Z,97088.59
2023-02-27T11:02:02.148Z,97087.78
2023-02-27T11:04:35.282Z,97080.13
2023-02-27T11:07:08.897Z,97081.75
2023-02-27T11:09:38.036Z,97073.44
2023-02-27T11:12:23.629Z,97076.53
2023-02-27T11:14:55.491Z,97077.19
2023-02-27T11:17:29.790Z,97081.44
2023-02-27T11:19:59.388Z,97067.41
2023-02-27T11:22:30.079Z,97075.06
2023-02-27T11:25:25.512Z,97064.00
2023-02-27T11:28:12.454Z,97078.97
2023-02-27T11:30:43.286Z,97079.19
2023-02-27T11:33:20.887Z,97077.38
2023-02-27T11:35:57.632Z,97074.91
2023-02-27T11:38:29.926Z,97064.31
2023-02-27T11:41:00.528Z,97055.00
2023-02-27T11:43:31.838Z,97063.81
2023-02-27T11:46:05.117Z,97063.31
2023-02-27T11:48:54.943Z,97064.44
2023-02-27T11:51:32.843Z,97061.66
2023-02-27T11:54:19.123Z,97068.19
2023-02-27T11:57:04.215Z,97070.47
2023-02-27T11:59:44.498Z,97063.13
2023-02-27T12:02:26.210Z,97063.31
2023-02-27T12:05:01.437Z,97063.94
2023-02-27T12:07:36.943Z,97073.09
2023-02-27T12:10:14.374Z,97069.47
2023-02-27T12:12:48.972Z,97069.84
2023-02-27T12:15:26.958Z,97065.78
2023-02-27T12:18:06.177Z,97059.75
2023-02-27T12:20:45.509Z,97057.44
2023-02-27T12:23:22.948Z,97052.25
2023-02-27T12:25:57.024Z,97057.75
2023-02-27T12:28:44.514Z,97043.41
2023-02-27T12:31:36.942Z,97047.66
2023-02-27T12:34:14.953Z,97046.03
2023-02-27T12:36:44.351Z,97039.63
2023-02-27T12:39:20.214Z,97048.31
2023-02-27T12:42:36.240Z,97041.16
2023-02-27T12:45:23.565Z,97044.84
2023-02-27T12:48:04.328Z,97044.03
2023-02-27T12:50:48.888Z,97043.88
2023-02-27T12:53:39.982Z,97046.47
2023-02-27T12:56:16.267Z,97045.69
2023-02-27T12:58:55.737Z,97042.94
2023-02-27T13:01:38.244Z,97043.44
2023-02-27T13:04:19.119Z,97042.78
2023-02-27T13:06:54.274Z,97045.69
2023-02-27T13:09:35.429Z,97035.22
2023-02-27T13:12:15.685Z,97040.16
2023-02-27T13:14:50.509Z,97052.09
2023-02-27T13:17:24.902Z,97047.00
2023-02-27T13:19:57.582Z,97033.50
2023-02-27T13:22:39.103Z,97036.72
2023-02-27T13:25:15.440Z,97034.81
2023-02-27T13:27:48.138Z,97037.75
2023-02-27T13:30:25.450Z,97032.53
2023-02-27T13:33:02.560Z,97028.63
2023-02-27T13:35:42.321Z,97029.41
2023-02-27T13:38:42.455Z,97031.56
2023-02-27T13:41:39.179Z,97032.19
2023-02-27T13:44:50.279Z,97037.94
2023-02-27T13:47:49.997Z,97033.03
2023-02-27T13:50:54.052Z,97033.84
2023-02-27T13:53:24.474Z,97035.94
2023-02-27T13:55:57.494Z,97034.00
2023-02-27T13:58:27.060Z,97030.56
2023-02-27T14:03:58.741Z,97035.94
2023-02-27T14:06:31.757Z,97038.56
2023-02-27T14:09:14.147Z,97036.78
2023-02-27T14:11:54.911Z,97044.75
2023-02-27T14:14:46.888Z,97042.97
2023-02-27T14:17:37.086Z,97053.41
2023-02-27T14:20:12.755Z,97045.09
2023-02-27T14:23:19.651Z,97048.34
2023-02-27T14:25:53.106Z,97043.59
2023-02-27T14:28:30.803Z,97045.25
2023-02-27T14:31:03.876Z,97050.44
2023-02-27T14:33:42.853Z,97048.69
2023-02-27T14:36:16.929Z,97044.44
2023-02-27T14:38:45.401Z,97051.94
2023-02-27T14:41:33.321Z,97048.34
2023-02-27T14:44:02.145Z,97057.28
2023-02-27T14:46:36.865Z,97054.03
2023-02-27T14:49:08.382Z,97050.97
2023-02-27T14:51:38.719Z,97054.03
2023-02-27T14:54:14.066Z,97051.59
2023-02-27T14:56:42.802Z,97057.31
2023-02-27T14:59:24.942Z,97062.31
2023-02-27T15:01:58.030Z,97061.53
2023-02-27T15:04:29.526Z,97056.00
2023-02-27T15:07:00.459Z,97067.22
2023-02-27T15:09:35.759Z,97067.53
2023-02-27T15:12:04.981Z,97068.66
2023-02-27T15:14:37.742Z,97066.88
2023-02-27T15:17:17.987Z,97079.19
2023-02-27T15:19:52.034Z,97081.81
2023-02-27T15:22:38.068Z,97076.34
2023-02-27T15:25:08.443Z,97081.19
2023-02-27T15:27:38.206Z,97095.47
2023-02-27T15:30:08.739Z,97093.22
2023-02-27T15:32:43.117Z,97090.34
2023-02-27T15:35:19.899Z,97101.34
2023-02-27T15:37:54.299Z,97096.28
2023-02-27T15:40:26.835Z,97094.00
2023-02-27T15:42:56.460Z,97100.69
2023-02-27T15:45:28.904Z,97103.94
2023-02-27T15:47:58.758Z,97103.59
2023-02-27T15:50:32.658Z,97107.69
2023-02-27T15:53:06.291Z,97103.91
2023-02-27T15:55:38.357Z,97109.31
2023-02-27T15:58:20.494Z,97110.63
2023-02-27T16:00:48.865Z,97118.66
2023-02-27T16:03:24.438Z,97120.28
2023-02-27T16:05:54.059Z,97120.25
2023-02-27T16:08:24.215Z,97128.38
2023-02-27T16:10:52.970Z,97128.41
2023-02-27T16:13:23.537Z,97126.78
2023-02-27T16:16:03.482Z,97134.50
2023-02-27T16:18:39.760Z,97141.06
2023-02-27T16:21:14.350Z,97131.44
2023-02-27T16:23:43.894Z,97138.28
2023-02-27T16:26:33.045Z,97144.59
2023-02-27T16:29:03.843Z,97143.59
2023-02-27T16:31:35.633Z,97156.59
2023-02-27T16:34:17.297Z,97145.50
2023-02-27T16:36:56.624Z,97147.59
2023-02-27T16:39:25.382Z,97156.59
2023-02-27T16:41:54.263Z,97169.75
2023-02-27T16:44:24.276Z,97168.81
2023-02-27T16:46:53.013Z,97171.78
2023-02-27T16:49:25.632Z,97174.84
2023-02-27T16:51:53.835Z,97175.91
2023-02-27T16:54:22.164Z,97171.72
2023-02-27T16:56:51.553Z,97174.72
2023-02-27T16:59:30.736Z,97179.69
2023-02-27T17:02:01.104Z,97177.69
2023-02-27T17:04:31.158Z,97179.59
2023-02-27T17:07:05.348Z,97180.13
2023-02-27T17:09:35.172Z,97190.19
2023-02-27T17:12:03.248Z,97190.75
2023-02-27T17:14:31.290Z,97186.81
2023-02-27T17:16:59.418Z,97202.75
2023-02-27T17:19:27.756Z,97198.41
2023-02-27T17:21:57.304Z,97206.03
2023-02-27T17:24:26.160Z,97215.66
2023-02-27T17:26:54.265Z,97205.69
2023-02-27T17:29:24.070Z,97215.50
2023-02-27T17:31:52.905Z,97211.94
2023-02-27T17:34:21.003Z,97223.22
2023-02-27T17:36:50.361Z,97215.22
2023-02-27T17:39:19.711Z,97219.75
2023-02-27T17:41:48.904Z,97214.38
2023-02-27T17:44:17.284Z,97223.47
2023-02-27T17:46:45.659Z,97217.81
2023-02-27T17:49:14.116Z,97222.94
2023-02-27T17:51:42.221Z,97225.94
2023-02-27T17:54:10.625Z,97228.72
2023-02-27T17:56:40.368Z,97228.59
2023-02-27T17:59:08.750Z,97225.00
2023-02-27T18:01:36.888Z,97227.97
2023-02-27T18:04:06.977Z,97233.19
2023-02-27T18:06:35.022Z,97236.31
2023-02-27T18:09:03.122Z,97235.16
2023-02-27T18:11:31.254Z,97231.44
2023-02-27T18:14:01.421Z,97241.56
2023-02-27T18:16:29.980Z,97242.84
2023-02-27T18:18:58.262Z,97243.34
2023-02-27T18:21:26.332Z,97244.50
2023-02-27T18:23:55.840Z,97251.41
2023-02-27T18:26:30.294Z,97247.31
2023-02-27T18:29:02.876Z,97253.09
2023-02-27T18:31:33.663Z,97255.22
2023-02-27T18:34:02.666Z,97248.34
2023-02-27T18:36:32.215Z,97250.56
2023-02-27T18:39:00.989Z,97255.22
2023-02-27T18:41:30.099Z,97253.09
2023-02-27T18:43:59.317Z,97249.13
2023-02-27T18:46:29.452Z,97259.72
2023-02-27T18:48:57.826Z,97260.03
2023-02-27T18:51:26.838Z,97256.50
2023-02-27T18:53:55.338Z,97256.59
2023-02-27T18:56:26.500Z,97259.38
2023-02-27T18:58:58.213Z,97261.44
2023-02-27T19:01:31.087Z,97260.28
2023-02-27T19:04:03.932Z,97266.81
2023-02-27T19:06:34.164Z,97261.94
2023-02-27T19:09:04.468Z,97259.91
2023-02-27T19:11:33.936Z,97262.28
2023-02-27T19:14:03.994Z,97256.94
2023-02-27T19:16:34.871Z,97264.53
2023-02-27T19:19:04.937Z,97261.63
2023-02-27T19:21:33.788Z,97265.66
2023-02-27T19:24:02.455Z,97261.16
2023-02-27T19:26:33.454Z,97260.81
2023-02-27T19:29:01.478Z,97262.66
2023-02-27T19:31:29.767Z,97259.41
2023-02-27T19:33:59.257Z,97262.72
2023-02-27T19:36:30.449Z,97253.91
2023-02-27T19:38:59.270Z,97259.50
2023-02-27T19:41:27.757Z,97254.34
2023-02-27T19:43:57.634Z,97263.06
2023-02-27T19:46:28.926Z,97249.34
2023-02-27T19:49:02.900Z,97255.06
2023-02-27T19:51:31.455Z,97254.13
2023-02-27T19:53:59.858Z,97258.00
2023-02-27T19:56:30.163Z,97257.84
2023-02-27T19:59:00.420Z,97257.69
2023-02-27T20:01:31.431Z,97266.03
2023-02-27T20:04:01.977Z,97257.72
2023-02-27T20:06:33.226Z,97259.22
2023-02-27T20:09:01.561Z,97257.88
2023-02-27T20:11:31.486Z,97258.16
2023-02-27T20:13:59.985Z,97270.16
2023-02-27T20:16:30.576Z,97264.25
2023-02-27T20:19:00.375Z,97262.22
2023-02-27T20:21:29.534Z,97257.44
2023-02-27T20:23:58.586Z,97269.66
2023-02-27T20:26:30.712Z,97262.28
2023-02-27T20:29:01.968Z,97265.56
2023-02-27T20:31:33.415Z,97267.56
2023-02-27T20:34:05.892Z,97262.75
2023-02-27T20:36:35.438Z,97256.94
2023-02-27T20:39:04.841Z,97261.16
2023-02-27T20:41:34.569Z,97254.06
2023-02-27T20:44:02.852Z,97253.00
2023-02-27T20:46:31.861Z,97256.25
2023-02-27T20:49:03.766Z,97248.69
2023-02-27T20:51:36.085Z,97248.88
2023-02-27T20:54:07.819Z,97252.75
2023-02-27T20:56:40.537Z,97248.31
2023-02-27T20:59:13.171Z,97244.88
2023-02-27T21:01:41.615Z,97245.44
2023-02-27T21:04:11.188Z,97249.53
2023-02-27T21:06:39.960Z,97244.78
2023-02-27T21:09:08.068Z,97250.78
2023-02-27T21:11:36.140Z,97247.25
2023-02-27T21:14:09.106Z,97245.13
2023-02-27T21:16:37.689Z,97247.28
2023-02-27T21:19:07.388Z,97251.25
2023-02-27T21:21:38.142Z,97243.97
2023-02-27T21:24:07.260Z,97246.47
2023-02-27T21:26:38.777Z,97250.69
2023-02-27T21:29:10.617Z,97242.31
2023-02-27T21:31:40.923Z,97243.63
2023-02-27T21:34:12.831Z,97237.59
2023-02-27T21:36:45.630Z,97243.16
2023-02-27T21:39:16.400Z,97237.97
2023-02-27T21:41:45.344Z,97239.13
2023-02-27T21:44:15.548Z,97233.97
2023-02-27T21:46:45.168Z,97236.25
2023-02-27T21:49:18.803Z,97235.00
2023-02-27T21:51:48.247Z,97222.56
2023-02-27T21:54:18.877Z,97225.56
2023-02-27T21:56:49.092Z,97221.06
2023-02-27T21:59:19.235Z,97218.06
2023-02-27T22:01:48.504Z,97216.66
2023-02-27T22:04:18.948Z,97218.63
2023-02-27T22:06:49.634Z,97216.16
2023-02-27T22:09:18.177Z,97219.81
2023-02-27T22:11:46.408Z,97215.72
2023-02-27T22:14:14.864Z,97218.63
2023-02-27T22:16:43.361Z,97215.19
2023-02-27T22:19:14.828Z,97213.19
2023-02-27T22:21:42.884Z,97208.75
2023-02-27T22:24:12.613Z,97211.75
2023-02-27T22:26:41.563Z,97210.88
2023-02-27T22:29:09.710Z,97218.66
2023-02-27T22:31:39.529Z,97218.66
2023-02-27T22:34:12.162Z,97214.38
2023-02-27T22:36:42.088Z,97205.06
2023-02-27T22:39:13.308Z,97209.91
2023-02-27T22:41:43.516Z,97207.56
2023-02-27T22:44:15.391Z,97198.25
2023-02-27T22:46:46.291Z,97197.59
2023-02-27T22:49:17.863Z,97201.72
2023-02-27T22:51:46.620Z,97201.78
2023-02-27T22:54:17.332Z,97194.13
2023-02-27T22:56:45.762Z,97201.16
2023-02-27T22:59:14.962Z,97198.38
2023-02-27T23:01:43.108Z,97202.09
2023-02-27T23:04:12.700Z,97200.22
2023-02-27T23:06:42.943Z,97198.19
2023-02-27T23:09:18.184Z,97205.44
2023-02-27T23:11:47.151Z,97192.44
2023-02-27T23:14:15.688Z,97201.31
2023-02-27T23:16:45.456Z,97206.28
2023-02-27T23:19:15.788Z,97198.06
2023-02-27T23:21:44.110Z,97200.00
2023-02-27T23:24:14.448Z,97197.28
2023-02-27T23:26:47.180Z,97203.13
2023-02-27T23:29:15.902Z,97204.38
2023-02-27T23:31:44.480Z,97206.06
2023-02-27T23:34:12.826Z,97205.63
2023-02-27T23:36:41.277Z,97200.00
2023-02-27T23:39:10.338Z,97203.00
2023-02-27T23:41:38.388Z,97204.66
2023-02-27T23:44:25.432Z,97211.50
2023-02-27T23:46:53.569Z,97195.53
2023-02-27T23:49:21.714Z,97197.56
2023-02-27T23:51:49.721Z,97196.47
2023-02-27T23:54:17.811Z,97203.59
2023-02-27T23:56:48.505Z,97198.28
2023-02-27T23:59:17.865Z,97194.84
